sensor_id;sensor_type;location;lat;lon;timestamp;P1;durP1;ratioP1;P2;durP2;ratioP2
15905;SDS011;8051;50.820;4.884;2023-03-03T00:01:07;60.07;;;49.43;;
15905;SDS011;8051;50.820;4.884;2023-03-03T00:03:34;66.50;;;49.53;;
15905;SDS011;8051;50.820;4.884;2023-03-03T00:06:03;67.07;;;49.13;;
15905;SDS011;8051;50.820;4.884;2023-03-03T00:08:34;62.03;;;49.60;;
15905;SDS011;8051;50.820;4.884;2023-03-03T00:11:02;69.60;;;50.77;;
15905;SDS011;8051;50.820;4.884;2023-03-03T00:13:31;65.37;;;49.73;;
15905;SDS011;8051;50.820;4.884;2023-03-03T00:16:12;59.10;;;47.50;;
15905;SDS011;8051;50.820;4.884;2023-03-03T00:18:42;68.90;;;49.23;;
15905;SDS011;8051;50.820;4.884;2023-03-03T00:21:22;72.30;;;50.97;;
15905;SDS011;8051;50.820;4.884;2023-03-03T00:23:53;60.27;;;48.30;;
15905;SDS011;8051;50.820;4.884;2023-03-03T00:26:25;62.03;;;49.43;;
15905;SDS011;8051;50.820;4.884;2023-03-03T00:28:58;72.50;;;50.77;;
15905;SDS011;8051;50.820;4.884;2023-03-03T00:31:28;66.00;;;50.00;;
15905;SDS011;8051;50.820;4.884;2023-03-03T00:34:00;67.17;;;49.17;;
15905;SDS011;8051;50.820;4.884;2023-03-03T00:36:40;71.57;;;51.53;;
15905;SDS011;8051;50.820;4.884;2023-03-03T00:39:17;69.87;;;50.17;;
15905;SDS011;8051;50.820;4.884;2023-03-03T00:41:50;73.83;;;50.63;;
15905;SDS011;8051;50.820;4.884;2023-03-03T00:47:26;83.37;;;52.73;;
15905;SDS011;8051;50.820;4.884;2023-03-03T00:52:53;78.53;;;52.90;;
15905;SDS011;8051;50.820;4.884;2023-03-03T00:55:27;72.00;;;51.27;;
15905;SDS011;8051;50.820;4.884;2023-03-03T00:57:55;70.83;;;49.57;;
15905;SDS011;8051;50.820;4.884;2023-03-03T01:00:23;74.13;;;51.90;;
15905;SDS011;8051;50.820;4.884;2023-03-03T01:02:52;76.73;;;52.37;;
15905;SDS011;8051;50.820;4.884;2023-03-03T01:05:19;66.80;;;48.30;;
15905;SDS011;8051;50.820;4.884;2023-03-03T01:07:47;73.80;;;49.97;;
15905;SDS011;8051;50.820;4.884;2023-03-03T01:10:14;62.87;;;48.43;;
15905;SDS011;8051;50.820;4.884;2023-03-03T01:12:42;61.70;;;47.10;;
15905;SDS011;8051;50.820;4.884;2023-03-03T01:15:09;70.00;;;49.13;;
15905;SDS011;8051;50.820;4.884;2023-03-03T01:17:39;64.17;;;47.13;;
15905;SDS011;8051;50.820;4.884;2023-03-03T01:20:10;62.37;;;47.63;;
15905;SDS011;8051;50.820;4.884;2023-03-03T01:22:42;70.33;;;47.50;;
15905;SDS011;8051;50.820;4.884;2023-03-03T01:25:09;72.53;;;49.60;;
15905;SDS011;8051;50.820;4.884;2023-03-03T01:27:37;70.43;;;48.63;;
15905;SDS011;8051;50.820;4.884;2023-03-03T01:30:06;68.17;;;50.00;;
15905;SDS011;8051;50.820;4.884;2023-03-03T01:32:35;69.60;;;47.50;;
15905;SDS011;8051;50.820;4.884;2023-03-03T01:35:02;66.87;;;48.27;;
15905;SDS011;8051;50.820;4.884;2023-03-03T01:37:32;65.30;;;46.33;;
15905;SDS011;8051;50.820;4.884;2023-03-03T01:40:00;69.40;;;46.63;;
15905;SDS011;8051;50.820;4.884;2023-03-03T01:42:28;68.90;;;48.53;;
15905;SDS011;8051;50.820;4.884;2023-03-03T01:45:12;72.03;;;49.70;;
15905;SDS011;8051;50.820;4.884;2023-03-03T01:47:43;67.33;;;47.37;;
15905;SDS011;8051;50.820;4.884;2023-03-03T01:50:20;61.30;;;46.23;;
15905;SDS011;8051;50.820;4.884;2023-03-03T01:53:06;73.50;;;50.27;;
15905;SDS011;8051;50.820;4.884;2023-03-03T01:55:40;67.90;;;47.67;;
15905;SDS011;8051;50.820;4.884;2023-03-03T01:58:10;59.33;;;45.40;;
15905;SDS011;8051;50.820;4.884;2023-03-03T02:00:41;73.83;;;49.73;;
15905;SDS011;8051;50.820;4.884;2023-03-03T02:03:11;76.47;;;49.60;;
15905;SDS011;8051;50.820;4.884;2023-03-03T02:05:38;73.80;;;47.57;;
15905;SDS011;8051;50.820;4.884;2023-03-03T02:08:10;77.27;;;49.00;;
15905;SDS011;8051;50.820;4.884;2023-03-03T02:10:41;84.27;;;50.63;;
15905;SDS011;8051;50.820;4.884;2023-03-03T02:13:10;78.07;;;47.67;;
15905;SDS011;8051;50.820;4.884;2023-03-03T02:15:38;75.50;;;48.47;;
15905;SDS011;8051;50.820;4.884;2023-03-03T02:18:06;80.23;;;47.40;;
15905;SDS011;8051;50.820;4.884;2023-03-03T02:20:43;69.43;;;47.03;;
15905;SDS011;8051;50.820;4.884;2023-03-03T02:23:20;71.50;;;46.27;;
15905;SDS011;8051;50.820;4.884;2023-03-03T02:26:01;72.23;;;46.50;;
15905;SDS011;8051;50.820;4.884;2023-03-03T02:28:34;78.67;;;47.00;;
15905;SDS011;8051;50.820;4.884;2023-03-03T02:31:04;77.17;;;47.90;;
15905;SDS011;8051;50.820;4.884;2023-03-03T02:33:35;92.77;;;47.13;;
15905;SDS011;8051;50.820;4.884;2023-03-03T02:36:02;79.07;;;48.03;;
15905;SDS011;8051;50.820;4.884;2023-03-03T02:38:31;74.13;;;46.67;;
15905;SDS011;8051;50.820;4.884;2023-03-03T02:41:06;73.87;;;45.37;;
15905;SDS011;8051;50.820;4.884;2023-03-03T02:43:41;84.63;;;46.23;;
15905;SDS011;8051;50.820;4.884;2023-03-03T02:46:17;74.47;;;47.27;;
15905;SDS011;8051;50.820;4.884;2023-03-03T02:48:45;75.77;;;43.33;;
15905;SDS011;8051;50.820;4.884;2023-03-03T02:51:12;76.10;;;46.90;;
15905;SDS011;8051;50.820;4.884;2023-03-03T02:53:39;72.50;;;45.13;;
15905;SDS011;8051;50.820;4.884;2023-03-03T02:56:08;76.33;;;45.43;;
15905;SDS011;8051;50.820;4.884;2023-03-03T02:58:36;70.60;;;47.73;;
15905;SDS011;8051;50.820;4.884;2023-03-03T03:01:04;72.47;;;46.57;;
15905;SDS011;8051;50.820;4.884;2023-03-03T03:03:31;76.97;;;45.27;;
15905;SDS011;8051;50.820;4.884;2023-03-03T03:05:58;71.23;;;44.07;;
15905;SDS011;8051;50.820;4.884;2023-03-03T03:08:26;73.27;;;45.43;;
15905;SDS011;8051;50.820;4.884;2023-03-03T03:10:53;76.83;;;47.77;;
15905;SDS011;8051;50.820;4.884;2023-03-03T03:13:23;72.80;;;45.77;;
15905;SDS011;8051;50.820;4.884;2023-03-03T03:15:51;76.27;;;46.40;;
15905;SDS011;8051;50.820;4.884;2023-03-03T03:18:18;73.57;;;44.67;;
15905;SDS011;8051;50.820;4.884;2023-03-03T03:20:46;78.87;;;46.23;;
15905;SDS011;8051;50.820;4.884;2023-03-03T03:23:13;81.00;;;46.97;;
15905;SDS011;8051;50.820;4.884;2023-03-03T03:25:41;86.33;;;48.43;;
15905;SDS011;8051;50.820;4.884;2023-03-03T03:28:10;91.37;;;50.43;;
15905;SDS011;8051;50.820;4.884;2023-03-03T03:30:40;90.77;;;50.77;;
15905;SDS011;8051;50.820;4.884;2023-03-03T03:33:08;84.17;;;49.43;;
15905;SDS011;8051;50.820;4.884;2023-03-03T03:35:36;88.13;;;51.67;;
15905;SDS011;8051;50.820;4.884;2023-03-03T03:38:04;90.20;;;50.57;;
15905;SDS011;8051;50.820;4.884;2023-03-03T03:40:32;93.60;;;52.27;;
15905;SDS011;8051;50.820;4.884;2023-03-03T03:42:59;91.30;;;50.07;;
15905;SDS011;8051;50.820;4.884;2023-03-03T03:45:27;102.20;;;52.93;;
15905;SDS011;8051;50.820;4.884;2023-03-03T03:47:56;96.03;;;53.03;;
15905;SDS011;8051;50.820;4.884;2023-03-03T03:50:23;103.27;;;53.27;;
15905;SDS011;8051;50.820;4.884;2023-03-03T03:52:51;97.20;;;51.70;;
15905;SDS011;8051;50.820;4.884;2023-03-03T03:55:19;92.80;;;52.43;;
15905;SDS011;8051;50.820;4.884;2023-03-03T03:57:47;96.87;;;51.43;;
15905;SDS011;8051;50.820;4.884;2023-03-03T04:00:14;95.30;;;51.63;;
15905;SDS011;8051;50.820;4.884;2023-03-03T04:02:42;97.93;;;52.93;;
15905;SDS011;8051;50.820;4.884;2023-03-03T04:05:11;101.77;;;49.80;;
15905;SDS011;8051;50.820;4.884;2023-03-03T04:07:39;98.50;;;49.60;;
15905;SDS011;8051;50.820;4.884;2023-03-03T04:10:06;98.40;;;50.53;;
15905;SDS011;8051;50.820;4.884;2023-03-03T04:12:35;87.87;;;47.87;;
15905;SDS011;8051;50.820;4.884;2023-03-03T04:15:04;99.97;;;47.60;;
15905;SDS011;8051;50.820;4.884;2023-03-03T04:17:33;97.27;;;50.97;;
15905;SDS011;8051;50.820;4.884;2023-03-03T04:20:01;109.03;;;50.47;;
15905;SDS011;8051;50.820;4.884;2023-03-03T04:22:30;93.87;;;48.73;;
15905;SDS011;8051;50.820;4.884;2023-03-03T04:24:58;95.00;;;48.90;;
15905;SDS011;8051;50.820;4.884;2023-03-03T04:27:29;96.50;;;49.83;;
15905;SDS011;8051;50.820;4.884;2023-03-03T04:29:56;110.37;;;52.10;;
15905;SDS011;8051;50.820;4.884;2023-03-03T04:32:24;92.50;;;47.63;;
15905;SDS011;8051;50.820;4.884;2023-03-03T04:34:51;96.67;;;49.37;;
15905;SDS011;8051;50.820;4.884;2023-03-03T04:37:19;97.27;;;48.63;;
15905;SDS011;8051;50.820;4.884;2023-03-03T04:39:48;95.67;;;50.57;;
15905;SDS011;8051;50.820;4.884;2023-03-03T04:42:15;93.33;;;48.13;;
15905;SDS011;8051;50.820;4.884;2023-03-03T04:44:43;95.50;;;51.73;;
15905;SDS011;8051;50.820;4.884;2023-03-03T04:47:10;101.33;;;50.93;;
15905;SDS011;8051;50.820;4.884;2023-03-03T04:49:38;85.00;;;47.13;;
15905;SDS011;8051;50.820;4.884;2023-03-03T04:52:05;95.27;;;50.10;;
15905;SDS011;8051;50.820;4.884;2023-03-03T04:54:32;95.03;;;51.23;;
15905;SDS011;8051;50.820;4.884;2023-03-03T04:57:01;98.47;;;51.93;;
15905;SDS011;8051;50.820;4.884;2023-03-03T04:59:29;98.37;;;50.60;;
15905;SDS011;8051;50.820;4.884;2023-03-03T05:01:56;86.23;;;47.90;;
15905;SDS011;8051;50.820;4.884;2023-03-03T05:04:24;81.30;;;45.30;;
15905;SDS011;8051;50.820;4.884;2023-03-03T05:06:51;87.73;;;46.80;;
15905;SDS011;8051;50.820;4.884;2023-03-03T05:09:18;91.77;;;47.87;;
15905;SDS011;8051;50.820;4.884;2023-03-03T05:11:46;89.63;;;46.67;;
15905;SDS011;8051;50.820;4.884;2023-03-03T05:14:15;80.97;;;47.47;;
15905;SDS011;8051;50.820;4.884;2023-03-03T05:16:42;91.23;;;50.77;;
15905;SDS011;8051;50.820;4.884;2023-03-03T05:19:10;87.50;;;46.40;;
15905;SDS011;8051;50.820;4.884;2023-03-03T05:21:37;85.10;;;45.77;;
15905;SDS011;8051;50.820;4.884;2023-03-03T05:24:07;88.40;;;49.60;;
15905;SDS011;8051;50.820;4.884;2023-03-03T05:26:35;95.83;;;49.23;;
15905;SDS011;8051;50.820;4.884;2023-03-03T05:29:03;85.57;;;45.83;;
15905;SDS011;8051;50.820;4.884;2023-03-03T05:31:32;88.50;;;47.23;;
15905;SDS011;8051;50.820;4.884;2023-03-03T05:33:59;86.37;;;45.93;;
15905;SDS011;8051;50.820;4.884;2023-03-03T05:36:27;81.13;;;48.87;;
15905;SDS011;8051;50.820;4.884;2023-03-03T05:38:54;92.30;;;47.63;;
15905;SDS011;8051;50.820;4.884;2023-03-03T05:41:22;91.27;;;50.00;;
15905;SDS011;8051;50.820;4.884;2023-03-03T05:43:49;85.23;;;48.20;;
15905;SDS011;8051;50.820;4.884;2023-03-03T05:46:17;80.37;;;45.43;;
15905;SDS011;8051;50.820;4.884;2023-03-03T05:48:45;88.47;;;47.90;;
15905;SDS011;8051;50.820;4.884;2023-03-03T05:51:13;85.10;;;46.57;;
15905;SDS011;8051;50.820;4.884;2023-03-03T05:53:40;93.40;;;52.37;;
15905;SDS011;8051;50.820;4.884;2023-03-03T05:56:08;80.00;;;46.07;;
15905;SDS011;8051;50.820;4.884;2023-03-03T05:58:35;85.57;;;47.20;;
15905;SDS011;8051;50.820;4.884;2023-03-03T06:01:03;76.83;;;48.30;;
15905;SDS011;8051;50.820;4.884;2023-03-03T06:03:30;91.23;;;49.43;;
15905;SDS011;8051;50.820;4.884;2023-03-03T06:05:59;83.13;;;47.57;;
15905;SDS011;8051;50.820;4.884;2023-03-03T06:08:27;97.53;;;48.27;;
15905;SDS011;8051;50.820;4.884;2023-03-03T06:10:56;98.83;;;46.90;;
15905;SDS011;8051;50.820;4.884;2023-03-03T06:13:24;92.70;;;46.30;;
15905;SDS011;8051;50.820;4.884;2023-03-03T06:15:51;103.20;;;43.53;;
15905;SDS011;8051;50.820;4.884;2023-03-03T06:18:18;92.27;;;44.33;;
15905;SDS011;8051;50.820;4.884;2023-03-03T06:20:49;86.50;;;44.13;;
15905;SDS011;8051;50.820;4.884;2023-03-03T06:23:19;93.10;;;45.80;;
15905;SDS011;8051;50.820;4.884;2023-03-03T06:25:47;87.17;;;43.33;;
15905;SDS011;8051;50.820;4.884;2023-03-03T06:28:15;84.80;;;44.53;;
15905;SDS011;8051;50.820;4.884;2023-03-03T06:30:42;74.07;;;40.17;;
15905;SDS011;8051;50.820;4.884;2023-03-03T06:33:09;77.27;;;39.80;;
15905;SDS011;8051;50.820;4.884;2023-03-03T06:35:37;83.53;;;43.93;;
15905;SDS011;8051;50.820;4.884;2023-03-03T06:38:04;82.60;;;43.40;;
15905;SDS011;8051;50.820;4.884;2023-03-03T06:40:33;79.80;;;42.93;;
15905;SDS011;8051;50.820;4.884;2023-03-03T06:43:01;81.77;;;41.57;;
15905;SDS011;8051;50.820;4.884;2023-03-03T06:45:28;84.70;;;43.60;;
15905;SDS011;8051;50.820;4.884;2023-03-03T06:47:56;73.27;;;39.90;;
15905;SDS011;8051;50.820;4.884;2023-03-03T06:50:23;84.03;;;43.30;;
15905;SDS011;8051;50.820;4.884;2023-03-03T06:52:51;85.87;;;41.23;;
15905;SDS011;8051;50.820;4.884;2023-03-03T06:55:28;85.07;;;39.47;;
15905;SDS011;8051;50.820;4.884;2023-03-03T06:57:57;79.27;;;41.70;;
15905;SDS011;8051;50.820;4.884;2023-03-03T07:00:26;85.57;;;40.50;;
15905;SDS011;8051;50.820;4.884;2023-03-03T07:02:56;76.30;;;41.07;;
15905;SDS011;8051;50.820;4.884;2023-03-03T07:05:26;85.70;;;41.23;;
15905;SDS011;8051;50.820;4.884;2023-03-03T07:07:54;75.77;;;38.00;;
15905;SDS011;8051;50.820;4.884;2023-03-03T07:10:23;76.87;;;39.30;;
15905;SDS011;8051;50.820;4.884;2023-03-03T07:12:52;90.23;;;44.83;;
15905;SDS011;8051;50.820;4.884;2023-03-03T07:15:25;68.83;;;39.63;;
15905;SDS011;8051;50.820;4.884;2023-03-03T07:17:59;72.20;;;40.20;;
15905;SDS011;8051;50.820;4.884;2023-03-03T07:20:29;71.27;;;41.30;;
15905;SDS011;8051;50.820;4.884;2023-03-03T07:23:17;82.37;;;44.03;;
15905;SDS011;8051;50.820;4.884;2023-03-03T07:25:49;79.57;;;42.17;;
15905;SDS011;8051;50.820;4.884;2023-03-03T07:28:19;85.67;;;45.47;;
15905;SDS011;8051;50.820;4.884;2023-03-03T07:30:51;73.47;;;43.20;;
15905;SDS011;8051;50.820;4.884;2023-03-03T07:33:22;85.03;;;43.63;;
15905;SDS011;8051;50.820;4.884;2023-03-03T07:35:53;74.73;;;42.77;;
15905;SDS011;8051;50.820;4.884;2023-03-03T07:38:23;82.30;;;45.23;;
15905;SDS011;8051;50.820;4.884;2023-03-03T07:40:56;77.77;;;43.30;;
15905;SDS011;8051;50.820;4.884;2023-03-03T07:43:28;75.10;;;45.23;;
15905;SDS011;8051;50.820;4.884;2023-03-03T07:46:02;81.07;;;41.10;;
15905;SDS011;8051;50.820;4.884;2023-03-03T07:48:54;78.20;;;42.57;;
15905;SDS011;8051;50.820;4.884;2023-03-03T07:51:24;85.90;;;45.33;;
15905;SDS011;8051;50.820;4.884;2023-03-03T07:53:53;75.67;;;43.03;;
15905;SDS011;8051;50.820;4.884;2023-03-03T07:56:40;75.33;;;44.33;;
15905;SDS011;8051;50.820;4.884;2023-03-03T07:59:13;81.43;;;43.40;;
15905;SDS011;8051;50.820;4.884;2023-03-03T08:01:47;79.97;;;44.50;;
15905;SDS011;8051;50.820;4.884;2023-03-03T08:04:20;69.70;;;43.20;;
15905;SDS011;8051;50.820;4.884;2023-03-03T08:06:51;77.57;;;44.10;;
15905;SDS011;8051;50.820;4.884;2023-03-03T08:09:40;77.83;;;42.40;;
15905;SDS011;8051;50.820;4.884;2023-03-03T08:12:19;77.10;;;45.27;;
15905;SDS011;8051;50.820;4.884;2023-03-03T08:15:12;72.07;;;41.80;;
15905;SDS011;8051;50.820;4.884;2023-03-03T08:17:48;83.87;;;45.70;;
15905;SDS011;8051;50.820;4.884;2023-03-03T08:23:12;82.57;;;46.63;;
15905;SDS011;8051;50.820;4.884;2023-03-03T08:25:41;75.80;;;44.60;;
15905;SDS011;8051;50.820;4.884;2023-03-03T08:28:09;70.83;;;44.57;;
15905;SDS011;8051;50.820;4.884;2023-03-03T08:30:38;78.57;;;45.97;;
15905;SDS011;8051;50.820;4.884;2023-03-03T08:33:07;77.37;;;45.50;;
15905;SDS011;8051;50.820;4.884;2023-03-03T08:35:35;77.03;;;45.37;;
15905;SDS011;8051;50.820;4.884;2023-03-03T08:38:03;81.03;;;47.87;;
15905;SDS011;8051;50.820;4.884;2023-03-03T08:40:31;74.47;;;45.87;;
15905;SDS011;8051;50.820;4.884;2023-03-03T08:42:59;76.47;;;49.03;;
15905;SDS011;8051;50.820;4.884;2023-03-03T08:45:27;76.03;;;46.83;;
15905;SDS011;8051;50.820;4.884;2023-03-03T08:47:55;81.17;;;49.30;;
15905;SDS011;8051;50.820;4.884;2023-03-03T08:50:25;73.83;;;45.97;;
15905;SDS011;8051;50.820;4.884;2023-03-03T08:52:53;69.77;;;44.93;;
15905;SDS011;8051;50.820;4.884;2023-03-03T08:55:21;77.03;;;43.93;;
15905;SDS011;8051;50.820;4.884;2023-03-03T08:57:48;74.27;;;45.60;;
15905;SDS011;8051;50.820;4.884;2023-03-03T09:00:16;74.60;;;45.57;;
15905;SDS011;8051;50.820;4.884;2023-03-03T09:02:44;77.43;;;43.70;;
15905;SDS011;8051;50.820;4.884;2023-03-03T09:05:12;61.40;;;43.03;;
15905;SDS011;8051;50.820;4.884;2023-03-03T09:07:42;67.43;;;42.60;;
15905;SDS011;8051;50.820;4.884;2023-03-03T09:10:10;65.53;;;42.07;;
15905;SDS011;8051;50.820;4.884;2023-03-03T09:12:40;65.40;;;43.70;;
15905;SDS011;8051;50.820;4.884;2023-03-03T09:15:20;59.70;;;41.37;;
15905;SDS011;8051;50.820;4.884;2023-03-03T09:17:50;64.97;;;42.33;;
15905;SDS011;8051;50.820;4.884;2023-03-03T09:20:24;66.17;;;43.57;;
15905;SDS011;8051;50.820;4.884;2023-03-03T09:22:59;58.67;;;41.80;;
15905;SDS011;8051;50.820;4.884;2023-03-03T09:25:51;60.87;;;41.67;;
15905;SDS011;8051;50.820;4.884;2023-03-03T09:28:21;59.60;;;43.70;;
15905;SDS011;8051;50.820;4.884;2023-03-03T09:30:50;59.73;;;41.27;;
15905;SDS011;8051;50.820;4.884;2023-03-03T09:33:23;58.17;;;41.80;;
15905;SDS011;8051;50.820;4.884;2023-03-03T09:35:56;52.50;;;42.97;;
15905;SDS011;8051;50.820;4.884;2023-03-03T09:38:31;59.67;;;43.53;;
15905;SDS011;8051;50.820;4.884;2023-03-03T09:44:29;52.30;;;42.07;;
15905;SDS011;8051;50.820;4.884;2023-03-03T09:47:10;51.67;;;40.00;;
15905;SDS011;8051;50.820;4.884;2023-03-03T09:49:50;49.43;;;39.10;;
15905;SDS011;8051;50.820;4.884;2023-03-03T09:52:30;56.90;;;42.90;;
15905;SDS011;8051;50.820;4.884;2023-03-03T09:55:14;50.77;;;41.37;;
15905;SDS011;8051;50.820;4.884;2023-03-03T09:57:51;53.33;;;41.70;;
15905;SDS011;8051;50.820;4.884;2023-03-03T10:00:35;52.07;;;40.20;;
15905;SDS011;8051;50.820;4.884;2023-03-03T10:03:25;48.40;;;40.63;;
15905;SDS011;8051;50.820;4.884;2023-03-03T10:06:14;44.90;;;39.50;;
15905;SDS011;8051;50.820;4.884;2023-03-03T10:11:58;43.20;;;35.37;;
15905;SDS011;8051;50.820;4.884;2023-03-03T10:17:25;45.77;;;38.00;;
15905;SDS011;8051;50.820;4.884;2023-03-03T10:20:11;42.03;;;37.40;;
15905;SDS011;8051;50.820;4.884;2023-03-03T10:23:07;48.47;;;40.17;;
15905;SDS011;8051;50.820;4.884;2023-03-03T10:25:49;45.87;;;38.80;;
15905;SDS011;8051;50.820;4.884;2023-03-03T10:28:27;48.37;;;38.97;;
15905;SDS011;8051;50.820;4.884;2023-03-03T10:31:42;48.83;;;36.67;;
15905;SDS011;8051;50.820;4.884;2023-03-03T10:34:31;46.70;;;37.67;;
15905;SDS011;8051;50.820;4.884;2023-03-03T10:37:11;45.27;;;38.17;;
15905;SDS011;8051;50.820;4.884;2023-03-03T10:39:51;46.40;;;38.63;;
15905;SDS011;8051;50.820;4.884;2023-03-03T10:42:34;46.73;;;39.40;;
15905;SDS011;8051;50.820;4.884;2023-03-03T10:45:28;41.20;;;36.33;;
15905;SDS011;8051;50.820;4.884;2023-03-03T10:48:09;45.97;;;38.30;;
15905;SDS011;8051;50.820;4.884;2023-03-03T10:50:49;44.07;;;37.43;;
15905;SDS011;8051;50.820;4.884;2023-03-03T10:53:25;46.43;;;37.43;;
15905;SDS011;8051;50.820;4.884;2023-03-03T10:56:01;46.70;;;38.57;;
15905;SDS011;8051;50.820;4.884;2023-03-03T10:58:52;42.13;;;36.63;;
15905;SDS011;8051;50.820;4.884;2023-03-03T11:01:29;46.10;;;38.77;;
15905;SDS011;8051;50.820;4.884;2023-03-03T11:04:19;41.60;;;36.00;;
15905;SDS011;8051;50.820;4.884;2023-03-03T11:07:05;47.30;;;39.43;;
15905;SDS011;8051;50.820;4.884;2023-03-03T11:09:42;45.07;;;37.63;;
15905;SDS011;8051;50.820;4.884;2023-03-03T11:12:27;46.20;;;37.17;;
15905;SDS011;8051;50.820;4.884;2023-03-03T11:15:18;43.57;;;37.57;;
15905;SDS011;8051;50.820;4.884;2023-03-03T11:18:00;43.03;;;38.50;;
15905;SDS011;8051;50.820;4.884;2023-03-03T11:20:37;41.30;;;36.97;;
15905;SDS011;8051;50.820;4.884;2023-03-03T11:23:14;44.47;;;38.47;;
15905;SDS011;8051;50.820;4.884;2023-03-03T11:26:00;38.93;;;34.10;;
15905;SDS011;8051;50.820;4.884;2023-03-03T11:28:39;43.20;;;35.70;;
15905;SDS011;8051;50.820;4.884;2023-03-03T11:31:22;40.03;;;35.77;;
15905;SDS011;8051;50.820;4.884;2023-03-03T11:33:56;35.80;;;31.67;;
15905;SDS011;8051;50.820;4.884;2023-03-03T11:36:30;39.03;;;33.90;;
15905;SDS011;8051;50.820;4.884;2023-03-03T11:39:02;46.03;;;37.37;;
15905;SDS011;8051;50.820;4.884;2023-03-03T11:41:33;44.13;;;33.53;;
15905;SDS011;8051;50.820;4.884;2023-03-03T11:44:09;36.10;;;32.20;;
15905;SDS011;8051;50.820;4.884;2023-03-03T11:46:44;42.17;;;32.67;;
15905;SDS011;8051;50.820;4.884;2023-03-03T11:49:17;37.93;;;32.33;;
15905;SDS011;8051;50.820;4.884;2023-03-03T11:51:53;35.77;;;31.83;;
15905;SDS011;8051;50.820;4.884;2023-03-03T11:54:28;35.97;;;32.10;;
15905;SDS011;8051;50.820;4.884;2023-03-03T11:57:04;36.90;;;32.90;;
15905;SDS011;8051;50.820;4.884;2023-03-03T11:59:43;42.10;;;34.90;;
15905;SDS011;8051;50.820;4.884;2023-03-03T12:02:22;36.30;;;32.13;;
15905;SDS011;8051;50.820;4.884;2023-03-03T12:05:06;37.33;;;33.33;;
15905;SDS011;8051;50.820;4.884;2023-03-03T12:07:40;34.93;;;31.23;;
15905;SDS011;8051;50.820;4.884;2023-03-03T12:10:16;36.13;;;32.23;;
15905;SDS011;8051;50.820;4.884;2023-03-03T12:12:50;35.37;;;31.80;;
15905;SDS011;8051;50.820;4.884;2023-03-03T12:15:28;37.17;;;32.67;;
15905;SDS011;8051;50.820;4.884;2023-03-03T12:21:13;37.23;;;33.43;;
15905;SDS011;8051;50.820;4.884;2023-03-03T12:23:53;36.23;;;32.20;;
15905;SDS011;8051;50.820;4.884;2023-03-03T12:26:31;35.97;;;32.10;;
15905;SDS011;8051;50.820;4.884;2023-03-03T12:29:05;35.97;;;32.27;;
15905;SDS011;8051;50.820;4.884;2023-03-03T12:31:39;35.00;;;31.33;;
15905;SDS011;8051;50.820;4.884;2023-03-03T12:34:16;33.80;;;30.20;;
15905;SDS011;8051;50.820;4.884;2023-03-03T12:36:57;30.03;;;27.23;;
15905;SDS011;8051;50.820;4.884;2023-03-03T12:39:35;32.50;;;29.20;;
15905;SDS011;8051;50.820;4.884;2023-03-03T12:42:12;32.40;;;29.17;;
15905;SDS011;8051;50.820;4.884;2023-03-03T12:44:50;31.90;;;28.57;;
15905;SDS011;8051;50.820;4.884;2023-03-03T12:47:27;34.63;;;31.13;;
15905;SDS011;8051;50.820;4.884;2023-03-03T12:50:02;34.23;;;30.67;;
15905;SDS011;8051;50.820;4.884;2023-03-03T12:52:48;33.20;;;29.83;;
15905;SDS011;8051;50.820;4.884;2023-03-03T12:55:23;35.00;;;30.57;;
15905;SDS011;8051;50.820;4.884;2023-03-03T12:58:03;32.10;;;29.00;;
15905;SDS011;8051;50.820;4.884;2023-03-03T13:00:40;32.93;;;29.33;;
15905;SDS011;8051;50.820;4.884;2023-03-03T13:03:17;32.33;;;28.83;;
15905;SDS011;8051;50.820;4.884;2023-03-03T13:05:55;31.17;;;28.07;;
15905;SDS011;8051;50.820;4.884;2023-03-03T13:08:36;34.83;;;31.33;;
15905;SDS011;8051;50.820;4.884;2023-03-03T13:11:23;32.67;;;29.30;;
15905;SDS011;8051;50.820;4.884;2023-03-03T13:14:04;32.83;;;29.47;;
15905;SDS011;8051;50.820;4.884;2023-03-03T13:16:42;33.53;;;30.20;;
15905;SDS011;8051;50.820;4.884;2023-03-03T13:19:14;34.07;;;30.47;;
15905;SDS011;8051;50.820;4.884;2023-03-03T13:21:48;34.50;;;31.10;;
15905;SDS011;8051;50.820;4.884;2023-03-03T13:24:22;35.10;;;31.30;;
15905;SDS011;8051;50.820;4.884;2023-03-03T13:26:59;31.63;;;28.53;;
15905;SDS011;8051;50.820;4.884;2023-03-03T13:29:34;30.20;;;27.30;;
15905;SDS011;8051;50.820;4.884;2023-03-03T13:32:07;31.53;;;28.17;;
15905;SDS011;8051;50.820;4.884;2023-03-03T13:34:41;31.60;;;28.43;;
15905;SDS011;8051;50.820;4.884;2023-03-03T13:37:16;32.23;;;28.90;;
15905;SDS011;8051;50.820;4.884;2023-03-03T13:39:51;34.37;;;30.03;;
15905;SDS011;8051;50.820;4.884;2023-03-03T13:42:24;33.50;;;30.20;;
15905;SDS011;8051;50.820;4.884;2023-03-03T13:44:58;32.57;;;29.37;;
15905;SDS011;8051;50.820;4.884;2023-03-03T13:47:30;34.07;;;30.70;;
15905;SDS011;8051;50.820;4.884;2023-03-03T13:50:11;34.63;;;31.13;;
15905;SDS011;8051;50.820;4.884;2023-03-03T13:52:47;33.63;;;30.17;;
15905;SDS011;8051;50.820;4.884;2023-03-03T13:55:39;36.53;;;32.63;;
15905;SDS011;8051;50.820;4.884;2023-03-03T13:58:12;37.20;;;30.63;;
15905;SDS011;8051;50.820;4.884;2023-03-03T14:00:51;34.83;;;31.47;;
15905;SDS011;8051;50.820;4.884;2023-03-03T14:03:35;35.10;;;31.30;;
15905;SDS011;8051;50.820;4.884;2023-03-03T14:06:24;34.87;;;31.43;;
15905;SDS011;8051;50.820;4.884;2023-03-03T14:08:57;35.20;;;31.73;;
15905;SDS011;8051;50.820;4.884;2023-03-03T14:11:37;34.77;;;31.07;;
15905;SDS011;8051;50.820;4.884;2023-03-03T14:14:12;37.03;;;33.33;;
15905;SDS011;8051;50.820;4.884;2023-03-03T14:16:50;35.93;;;32.53;;
15905;SDS011;8051;50.820;4.884;2023-03-03T14:19:20;36.53;;;32.63;;
15905;SDS011;8051;50.820;4.884;2023-03-03T14:21:59;36.67;;;32.90;;
15905;SDS011;8051;50.820;4.884;2023-03-03T14:24:32;36.17;;;32.57;;
15905;SDS011;8051;50.820;4.884;2023-03-03T14:27:33;34.57;;;31.20;;
15905;SDS011;8051;50.820;4.884;2023-03-03T14:35:51;35.03;;;31.37;;
15905;SDS011;8051;50.820;4.884;2023-03-03T14:38:42;35.07;;;31.77;;
15905;SDS011;8051;50.820;4.884;2023-03-03T14:41:13;34.40;;;31.17;;
15905;SDS011;8051;50.820;4.884;2023-03-03T14:43:45;34.87;;;31.47;;
15905;SDS011;8051;50.820;4.884;2023-03-03T14:49:13;35.80;;;32.13;;
15905;SDS011;8051;50.820;4.884;2023-03-03T14:51:42;35.23;;;31.57;;
15905;SDS011;8051;50.820;4.884;2023-03-03T14:54:21;36.13;;;32.37;;
15905;SDS011;8051;50.820;4.884;2023-03-03T14:56:59;35.37;;;31.67;;
15905;SDS011;8051;50.820;4.884;2023-03-03T14:59:33;35.80;;;31.97;;
15905;SDS011;8051;50.820;4.884;2023-03-03T15:02:23;35.17;;;31.73;;
15905;SDS011;8051;50.820;4.884;2023-03-03T15:07:53;35.10;;;31.57;;
15905;SDS011;8051;50.820;4.884;2023-03-03T15:10:26;34.30;;;30.90;;
15905;SDS011;8051;50.820;4.884;2023-03-03T15:13:03;34.67;;;31.27;;
15905;SDS011;8051;50.820;4.884;2023-03-03T15:16:01;32.13;;;28.93;;
15905;SDS011;8051;50.820;4.884;2023-03-03T15:18:34;33.17;;;29.70;;
15905;SDS011;8051;50.820;4.884;2023-03-03T15:21:32;37.27;;;31.90;;
15905;SDS011;8051;50.820;4.884;2023-03-03T15:24:05;35.83;;;32.13;;
15905;SDS011;8051;50.820;4.884;2023-03-03T15:26:41;35.33;;;31.63;;
15905;SDS011;8051;50.820;4.884;2023-03-03T15:29:14;32.70;;;29.43;;
15905;SDS011;8051;50.820;4.884;2023-03-03T15:31:51;33.30;;;30.07;;
15905;SDS011;8051;50.820;4.884;2023-03-03T15:34:25;35.20;;;31.60;;
15905;SDS011;8051;50.820;4.884;2023-03-03T15:37:01;34.53;;;29.57;;
15905;SDS011;8051;50.820;4.884;2023-03-03T15:39:35;34.73;;;29.10;;
15905;SDS011;8051;50.820;4.884;2023-03-03T15:42:13;34.30;;;30.80;;